createdAt,value
2019-02-21T00:00:24.191Z,9.28
2019-02-21T00:02:51.822Z,9.23
2019-02-21T00:05:21.184Z,9.20
2019-02-21T00:07:50.695Z,9.21
2019-02-21T00:10:21.063Z,9.21
2019-02-21T00:12:51.008Z,9.20
2019-02-21T00:15:20.928Z,9.18
2019-02-21T00:17:50.296Z,9.17
2019-02-21T00:20:20.019Z,9.17
2019-02-21T00:22:49.671Z,9.18
2019-02-21T00:25:19.084Z,9.19
2019-02-21T00:27:48.726Z,9.20
2019-02-21T00:30:18.390Z,9.16
2019-02-21T00:32:47.843Z,9.16
2019-02-21T00:35:17.253Z,9.20
2019-02-21T00:37:46.764Z,9.21
2019-02-21T00:40:16.128Z,9.22
2019-02-21T00:42:45.719Z,9.23
2019-02-21T00:45:15.141Z,9.22
2019-02-21T00:47:44.783Z,9.23
2019-02-21T00:50:15.222Z,9.21
2019-02-21T00:52:44.807Z,9.21
2019-02-21T00:55:15.097Z,9.22
2019-02-21T00:57:44.738Z,9.25
2019-02-21T01:00:15.389Z,9.24
2019-02-21T01:02:45.196Z,9.23
2019-02-21T01:05:14.863Z,9.25
2019-02-21T01:07:44.209Z,9.29
2019-02-21T01:10:15.152Z,9.33
2019-02-21T01:12:44.814Z,9.33
2019-02-21T01:15:15.193Z,9.33
2019-02-21T01:17:45.959Z,9.36
2019-02-21T01:20:15.321Z,9.36
2019-02-21T01:22:44.826Z,9.35
2019-02-21T01:25:15.379Z,9.33
2019-02-21T01:27:44.923Z,9.35
2019-02-21T01:30:15.467Z,9.33
2019-02-21T01:32:44.966Z,9.30
2019-02-21T01:35:15.337Z,9.29
2019-02-21T01:37:44.943Z,9.26
2019-02-21T01:40:15.216Z,9.21
2019-02-21T01:42:44.852Z,9.16
2019-02-21T01:45:15.261Z,9.14
2019-02-21T01:47:44.849Z,9.13
2019-02-21T01:50:15.614Z,9.10
2019-02-21T01:52:45.207Z,9.08
2019-02-21T01:55:15.548Z,9.04
2019-02-21T01:57:44.930Z,8.99
2019-02-21T02:00:15.571Z,8.99
2019-02-21T02:02:45.092Z,9.00
2019-02-21T02:05:15.455Z,8.95
2019-02-21T02:07:45.074Z,8.92
2019-02-21T02:10:15.280Z,8.90
2019-02-21T02:12:45.103Z,8.90
2019-02-21T02:15:15.320Z,8.90
2019-02-21T02:17:44.962Z,8.89
2019-02-21T02:20:15.499Z,8.89
2019-02-21T02:22:45.232Z,8.80
2019-02-21T02:25:15.354Z,8.80
2019-02-21T02:27:45.057Z,8.84
2019-02-21T02:30:15.664Z,8.83
2019-02-21T02:32:45.381Z,8.83
2019-02-21T02:35:15.411Z,8.83
2019-02-21T02:37:44.992Z,8.88
2019-02-21T02:40:15.337Z,8.86
2019-02-21T02:42:44.977Z,8.84
2019-02-21T02:45:15.361Z,8.81
2019-02-21T02:47:44.703Z,8.80
2019-02-21T02:50:15.519Z,8.79
2019-02-21T02:52:45.265Z,8.72
2019-02-21T02:55:15.464Z,8.72
2019-02-21T02:57:45.359Z,8.72
2019-02-21T03:00:15.881Z,8.72
2019-02-21T03:02:45.310Z,8.74
2019-02-21T03:05:15.519Z,8.75
2019-02-21T03:07:45.144Z,8.77
2019-02-21T03:10:15.480Z,8.77
2019-02-21T03:12:45.101Z,8.84
2019-02-21T03:15:15.419Z,8.84
2019-02-21T03:17:45.079Z,8.85
2019-02-21T03:20:15.847Z,8.88
2019-02-21T03:22:45.198Z,8.90
2019-02-21T03:25:15.559Z,8.90
2019-02-21T03:27:45.230Z,8.91
2019-02-21T03:30:15.593Z,8.91
2019-02-21T03:32:45.255Z,8.91
2019-02-21T03:35:15.582Z,8.91
2019-02-21T03:37:45.169Z,8.91
2019-02-21T03:40:15.587Z,8.92
2019-02-21T03:42:45.262Z,8.92
2019-02-21T03:45:15.639Z,8.91
2019-02-21T03:47:45.285Z,8.92
2019-02-21T03:50:15.900Z,8.92
2019-02-21T03:52:45.266Z,8.93
2019-02-21T03:55:15.811Z,8.94
2019-02-21T03:57:45.460Z,8.96
2019-02-21T04:00:15.636Z,8.94
2019-02-21T04:02:45.584Z,8.94
2019-02-21T04:05:15.653Z,8.92
2019-02-21T04:07:45.299Z,8.93
2019-02-21T04:10:15.683Z,8.92
2019-02-21T04:12:45.474Z,8.91
2019-02-21T04:15:15.557Z,8.93
2019-02-21T04:17:45.218Z,8.96
2019-02-21T04:20:14.566Z,8.98
2019-02-21T04:22:44.219Z,8.99
2019-02-21T04:25:13.606Z,9.00
2019-02-21T04:27:43.214Z,9.00
2019-02-21T04:30:12.556Z,8.99
2019-02-21T04:32:42.625Z,8.96
2019-02-21T04:35:12.267Z,8.93
2019-02-21T04:37:41.873Z,8.88
2019-02-21T04:40:11.293Z,8.83
2019-02-21T04:42:40.885Z,8.81
2019-02-21T04:45:10.529Z,8.72
2019-02-21T04:47:39.889Z,8.72
2019-02-21T04:50:09.356Z,8.69
2019-02-21T04:52:38.721Z,8.69
2019-02-21T04:55:08.338Z,8.70
2019-02-21T04:57:37.699Z,8.69
2019-02-21T05:00:10.599Z,8.68
2019-02-21T05:02:39.965Z,8.69
2019-02-21T05:05:09.495Z,8.65
2019-02-21T05:07:38.869Z,8.61
2019-02-21T05:10:08.417Z,8.58
2019-02-21T05:12:37.779Z,8.58
2019-02-21T05:15:07.526Z,8.54
2019-02-21T05:17:36.994Z,8.52
2019-02-21T05:20:06.929Z,8.52
2019-02-21T05:22:36.408Z,8.50
2019-02-21T05:25:06.117Z,8.48
2019-02-21T05:27:35.776Z,8.43
2019-02-21T05:30:07.849Z,8.43
2019-02-21T05:32:42.170Z,8.37
2019-02-21T05:35:13.180Z,8.37
2019-02-21T05:37:44.183Z,8.41
2019-02-21T05:40:20.734Z,8.39
2019-02-21T05:42:52.312Z,8.40
2019-02-21T05:45:24.558Z,8.40
2019-02-21T05:48:04.709Z,8.40
2019-02-21T05:50:51.750Z,8.39
2019-02-21T05:53:38.607Z,8.40
2019-02-21T05:56:09.601Z,8.41
2019-02-21T05:58:40.590Z,8.41
2019-02-21T06:01:23.668Z,8.41
2019-02-21T06:04:03.554Z,8.41
2019-02-21T06:06:43.772Z,8.37
2019-02-21T06:09:14.767Z,8.35
2019-02-21T06:12:02.080Z,8.33
2019-02-21T06:14:33.378Z,8.34
2019-02-21T06:17:07.021Z,8.29
2019-02-21T06:19:41.230Z,8.36
2019-02-21T06:22:12.305Z,8.36
2019-02-21T06:24:44.136Z,8.36
2019-02-21T06:27:15.412Z,8.32
2019-02-21T06:29:49.779Z,8.32
2019-02-21T06:32:19.133Z,8.35
2019-02-21T06:34:48.868Z,8.35
2019-02-21T06:37:18.522Z,8.31
2019-02-21T06:39:47.886Z,8.29
2019-02-21T06:42:18.865Z,8.29
2019-02-21T06:44:48.235Z,8.30
2019-02-21T06:47:17.874Z,8.29
2019-02-21T06:49:47.248Z,8.27
2019-02-21T06:52:16.893Z,8.24
2019-02-21T06:54:46.802Z,8.20
2019-02-21T06:57:18.098Z,8.17
2019-02-21T06:59:47.667Z,8.17
2019-02-21T07:02:18.267Z,8.15
2019-02-21T07:04:47.815Z,8.22
2019-02-21T07:07:17.189Z,8.22
2019-02-21T07:09:46.727Z,8.24
2019-02-21T07:12:16.063Z,8.29
2019-02-21T07:14:45.971Z,8.32
2019-02-21T07:17:16.083Z,8.33
2019-02-21T07:19:45.734Z,8.34
2019-02-21T07:22:17.925Z,8.37
2019-02-21T07:24:47.790Z,8.37
2019-02-21T07:27:17.406Z,8.40
2019-02-21T07:29:46.829Z,8.45
2019-02-21T07:32:16.184Z,8.48
2019-02-21T07:34:46.801Z,8.50
2019-02-21T07:37:18.913Z,8.50
2019-02-21T07:39:50.774Z,8.56
2019-02-21T07:42:20.728Z,8.55
2019-02-21T07:44:50.118Z,8.57
2019-02-21T07:47:19.516Z,8.61
2019-02-21T07:49:50.424Z,8.71
2019-02-21T07:52:20.125Z,8.71
2019-02-21T07:55:01.032Z,8.75
2019-02-21T07:57:21.859Z,8.78
2019-02-21T07:59:51.238Z,8.81
2019-02-21T08:02:21.135Z,8.90
2019-02-21T08:04:50.523Z,8.96
2019-02-21T08:07:20.167Z,9.00
2019-02-21T08:09:49.907Z,9.10
2019-02-21T08:12:19.498Z,9.10
2019-02-21T08:14:48.878Z,9.16
2019-02-21T08:17:18.463Z,9.20
2019-02-21T08:19:48.004Z,9.38
2019-02-21T08:22:17.355Z,9.38
2019-02-21T08:24:47.170Z,9.45
2019-02-21T08:27:16.807Z,9.45
2019-02-21T08:29:46.167Z,9.50
2019-02-21T08:32:17.872Z,9.55
2019-02-21T08:34:49.113Z,9.60
2019-02-21T08:37:19.830Z,9.66
2019-02-21T08:39:49.195Z,9.71
2019-02-21T08:42:18.854Z,9.78
2019-02-21T08:44:48.204Z,9.90
2019-02-21T08:47:18.131Z,9.97
2019-02-21T08:49:47.742Z,10.01
2019-02-21T08:52:17.295Z,10.12
2019-02-21T08:54:47.255Z,10.36
2019-02-21T08:57:19.582Z,10.36
2019-02-21T08:59:48.202Z,10.62
2019-02-21T09:02:18.196Z,10.76
2019-02-21T09:04:47.569Z,10.89
2019-02-21T09:07:17.108Z,10.97
2019-02-21T09:09:46.475Z,10.98
2019-02-21T09:12:16.337Z,10.92
2019-02-21T09:14:45.998Z,10.87
2019-02-21T09:17:16.406Z,10.84
2019-02-21T09:19:46.103Z,10.81
2019-02-21T09:22:16.319Z,10.80
2019-02-21T09:24:45.974Z,10.81
2019-02-21T09:27:16.323Z,10.77
2019-02-21T09:29:45.987Z,10.76
2019-02-21T09:32:16.468Z,10.83
2019-02-21T09:34:46.097Z,10.91
2019-02-21T09:37:16.643Z,11.00
2019-02-21T09:39:46.089Z,11.06
2019-02-21T09:42:16.421Z,11.09
2019-02-21T09:44:46.344Z,11.13
2019-02-21T09:47:15.984Z,11.09
2019-02-21T09:49:45.818Z,11.04
2019-02-21T09:52:16.595Z,11.03
2019-02-21T09:54:47.480Z,11.03
2019-02-21T09:57:18.745Z,10.99
2019-02-21T09:59:48.120Z,10.91
2019-02-21T10:02:18.067Z,10.84
2019-02-21T10:04:47.414Z,10.70
2019-02-21T10:07:17.038Z,10.57
2019-02-21T10:09:46.645Z,10.47
2019-02-21T10:12:16.846Z,10.45
2019-02-21T10:14:46.188Z,10.42
2019-02-21T10:17:16.502Z,10.35
2019-02-21T10:19:45.877Z,10.34
2019-02-21T10:22:16.471Z,10.36
2019-02-21T10:24:46.103Z,10.36
2019-02-21T10:27:16.829Z,10.36
2019-02-21T10:29:46.185Z,10.32
2019-02-21T10:32:16.557Z,10.31
2019-02-21T10:34:46.140Z,10.39
2019-02-21T10:37:16.512Z,10.39
2019-02-21T10:39:47.887Z,10.53
2019-02-21T10:42:17.856Z,10.64
2019-02-21T10:44:50.179Z,10.72
2019-02-21T10:47:20.079Z,10.72
2019-02-21T10:49:49.437Z,10.76
2019-02-21T10:52:19.128Z,10.79
2019-02-21T10:54:48.513Z,10.83
2019-02-21T10:57:18.178Z,10.91
2019-02-21T10:59:49.029Z,10.96
2019-02-21T11:02:18.604Z,10.98
2019-02-21T11:04:54.707Z,10.99
2019-02-21T11:07:19.613Z,10.99
2019-02-21T11:09:49.296Z,11.09
2019-02-21T11:12:18.918Z,11.14
2019-02-21T11:14:48.413Z,11.23
2019-02-21T11:17:17.812Z,11.32
2019-02-21T11:19:47.407Z,11.41
2019-02-21T11:22:17.043Z,11.50
2019-02-21T11:24:48.040Z,11.55
2019-02-21T11:27:17.706Z,11.58
2019-02-21T11:29:47.369Z,11.63
2019-02-21T11:32:16.755Z,11.61
2019-02-21T11:34:46.465Z,11.63
2019-02-21T11:37:15.867Z,11.64
2019-02-21T11:39:45.798Z,11.72
2019-02-21T11:42:16.392Z,11.79
2019-02-21T11:44:45.752Z,11.85
2019-02-21T11:47:18.095Z,11.93
2019-02-21T11:49:47.456Z,12.00
2019-02-21T11:52:17.749Z,12.13
2019-02-21T11:54:47.462Z,12.38
2019-02-21T11:57:17.211Z,12.68
2019-02-21T11:59:46.597Z,12.90
2019-02-21T12:02:16.891Z,12.97
2019-02-21T12:04:46.470Z,12.96
2019-02-21T12:07:16.693Z,12.94
2019-02-21T12:09:46.057Z,12.88
2019-02-21T12:12:17.343Z,12.80
2019-02-21T12:14:46.695Z,12.80
2019-02-21T12:17:17.057Z,12.69
2019-02-21T12:19:46.552Z,12.69
2019-02-21T12:22:16.795Z,12.64
2019-02-21T12:24:46.730Z,12.57
2019-02-21T12:27:17.038Z,12.56
2019-02-21T12:29:46.816Z,12.49
2019-02-21T12:32:16.844Z,12.40
2019-02-21T12:34:46.522Z,12.36
2019-02-21T12:37:16.870Z,12.34
2019-02-21T12:39:46.505Z,12.28
2019-02-21T12:42:17.110Z,12.19
2019-02-21T12:44:47.902Z,12.15
2019-02-21T12:47:17.877Z,12.13
2019-02-21T12:49:47.509Z,12.13
2019-02-21T12:52:18.252Z,12.13
2019-02-21T12:54:47.863Z,12.14
2019-02-21T12:57:17.532Z,12.11
2019-02-21T12:59:46.915Z,12.13
2019-02-21T13:02:16.584Z,12.19
2019-02-21T13:04:47.937Z,12.21
2019-02-21T13:07:17.647Z,12.14
2019-02-21T13:09:47.035Z,12.29
2019-02-21T13:12:16.920Z,12.34
2019-02-21T13:14:46.603Z,12.40
2019-02-21T13:17:16.950Z,12.42
2019-02-21T13:19:46.584Z,12.48
2019-02-21T13:22:16.956Z,12.54
2019-02-21T13:24:46.686Z,12.63
2019-02-21T13:27:16.918Z,12.69
2019-02-21T13:29:46.575Z,12.73
2019-02-21T13:32:16.935Z,12.75
2019-02-21T13:34:46.615Z,12.72
2019-02-21T13:37:27.940Z,12.72
2019-02-21T13:39:48.285Z,12.70
2019-02-21T13:42:18.105Z,12.70
2019-02-21T13:44:47.906Z,12.70
2019-02-21T13:47:17.576Z,12.80
2019-02-21T13:49:46.940Z,12.93
2019-02-21T13:52:16.591Z,12.98
2019-02-21T13:54:46.994Z,12.97
2019-02-21T13:57:17.617Z,13.01
2019-02-21T13:59:48.817Z,13.08
2019-02-21T14:02:18.162Z,13.11
2019-02-21T14:04:47.647Z,13.09
2019-02-21T14:07:17.139Z,13.00
2019-02-21T14:09:46.877Z,12.86
2019-02-21T14:12:17.047Z,12.72
2019-02-21T14:14:46.759Z,12.56
2019-02-21T14:17:17.177Z,12.39
2019-02-21T14:19:47.171Z,12.25
2019-02-21T14:22:16.806Z,12.22
2019-02-21T14:24:46.213Z,12.22
2019-02-21T14:27:17.276Z,12.15
2019-02-21T14:29:46.664Z,12.09
2019-02-21T14:32:16.899Z,12.00
2019-02-21T14:34:46.515Z,11.89
2019-02-21T14:37:17.226Z,11.83
2019-02-21T14:39:46.780Z,11.83
2019-02-21T14:42:16.143Z,11.84
2019-02-21T14:44:46.053Z,11.83
2019-02-21T14:47:17.630Z,11.81
2019-02-21T14:49:46.994Z,11.79
2019-02-21T14:52:17.227Z,11.78
2019-02-21T14:54:46.628Z,11.74
2019-02-21T14:57:17.434Z,11.67
2019-02-21T14:59:46.787Z,11.61
2019-02-21T15:02:17.163Z,11.49
2019-02-21T15:04:46.812Z,11.36
2019-02-21T15:07:17.290Z,11.27
2019-02-21T15:09:47.904Z,11.14
2019-02-21T15:12:17.353Z,11.14
2019-02-21T15:14:46.788Z,11.14
2019-02-21T15:17:18.555Z,11.10
2019-02-21T15:19:48.107Z,11.06
2019-02-21T15:22:17.485Z,11.01
2019-02-21T15:24:47.821Z,11.02
2019-02-21T15:27:18.031Z,11.02
2019-02-21T15:29:47.392Z,11.01
2019-02-21T15:32:17.189Z,10.98
2019-02-21T15:34:47.346Z,10.96
2019-02-21T15:37:18.094Z,10.98
2019-02-21T15:39:47.496Z,11.03
2019-02-21T15:42:17.294Z,11.05
2019-02-21T15:44:46.928Z,11.07
2019-02-21T15:47:17.241Z,11.11
2019-02-21T15:49:46.895Z,11.21
2019-02-21T15:52:22.271Z,11.21
2019-02-21T15:54:48.324Z,11.24
2019-02-21T15:57:18.235Z,11.26
2019-02-21T15:59:47.594Z,11.28
2019-02-21T16:02:18.682Z,11.24
2019-02-21T16:04:48.042Z,11.23
2019-02-21T16:07:17.547Z,11.24
2019-02-21T16:09:46.911Z,11.27
2019-02-21T16:12:17.838Z,11.31
2019-02-21T16:14:47.894Z,11.34
2019-02-21T16:17:17.352Z,11.36
2019-02-21T16:19:46.977Z,11.36
2019-02-21T16:22:17.311Z,11.36
2019-02-21T16:24:48.127Z,11.39
2019-02-21T16:27:19.010Z,11.40
2019-02-21T16:29:48.398Z,11.42
2019-02-21T16:32:18.043Z,11.45
2019-02-21T16:34:47.664Z,11.48
2019-02-21T16:37:17.500Z,11.50
2019-02-21T16:39:47.413Z,11.49
2019-02-21T16:42:17.278Z,11.42
2019-02-21T16:44:46.897Z,11.42
2019-02-21T16:47:16.312Z,11.43
2019-02-21T16:49:46.976Z,11.41
2019-02-21T16:52:18.079Z,11.41
2019-02-21T16:54:47.441Z,11.43
2019-02-21T16:57:17.889Z,11.43
2019-02-21T16:59:47.297Z,11.45
2019-02-21T17:02:17.479Z,11.46
2019-02-21T17:04:47.121Z,11.44
2019-02-21T17:07:20.124Z,11.44
2019-02-21T17:09:49.068Z,11.45
2019-02-21T17:12:18.419Z,11.44
2019-02-21T17:14:48.601Z,11.44
2019-02-21T17:17:18.256Z,11.41
2019-02-21T17:19:47.872Z,11.39
2019-02-21T17:22:17.803Z,11.37
2019-02-21T17:24:47.188Z,11.36
2019-02-21T17:27:17.533Z,11.33
2019-02-21T17:29:47.213Z,11.27
2019-02-21T17:32:17.530Z,11.18
2019-02-21T17:34:47.238Z,11.13
2019-02-21T17:37:25.011Z,11.12
2019-02-21T17:39:50.759Z,11.09
2019-02-21T17:42:20.702Z,11.02
2019-02-21T17:44:51.181Z,10.96
2019-02-21T17:47:20.829Z,10.91
2019-02-21T17:49:50.336Z,10.88
2019-02-21T17:52:19.685Z,10.84
2019-02-21T17:54:49.209Z,10.78
2019-02-21T17:57:18.570Z,10.78
2019-02-21T17:59:48.615Z,10.78
2019-02-21T18:02:18.286Z,10.77
2019-02-21T18:04:47.932Z,10.77
2019-02-21T18:07:17.733Z,10.75
2019-02-21T18:09:47.217Z,10.74
2019-02-21T18:12:17.584Z,10.72
2019-02-21T18:14:47.307Z,10.70
2019-02-21T18:17:17.742Z,10.69
2019-02-21T18:19:47.385Z,10.68
2019-02-21T18:22:18.619Z,10.68
2019-02-21T18:24:48.313Z,10.64
2019-02-21T18:27:17.683Z,10.64
2019-02-21T18:29:47.245Z,10.65
2019-02-21T18:32:17.693Z,10.64
2019-02-21T18:34:49.472Z,10.63
2019-02-21T18:37:18.706Z,10.62
2019-02-21T18:39:51.505Z,10.62
2019-02-21T18:42:22.469Z,10.64
2019-02-21T18:44:52.099Z,10.63
2019-02-21T18:47:21.597Z,10.64
2019-02-21T18:49:51.204Z,10.64
2019-02-21T18:52:20.700Z,10.60
2019-02-21T18:54:50.376Z,10.57
2019-02-21T18:57:19.778Z,10.57
2019-02-21T18:59:49.367Z,10.61
2019-02-21T19:02:19.858Z,10.59
2019-02-21T19:04:49.496Z,10.60
2019-02-21T19:07:18.895Z,10.60
2019-02-21T19:09:48.386Z,10.65
2019-02-21T19:12:17.826Z,10.65
2019-02-21T19:14:47.701Z,10.67
2019-02-21T19:17:17.918Z,10.67
2019-02-21T19:19:47.686Z,10.70
2019-02-21T19:22:17.988Z,10.70
2019-02-21T19:24:47.876Z,10.64
2019-02-21T19:27:18.196Z,10.64
2019-02-21T19:29:47.566Z,10.63
2019-02-21T19:32:17.935Z,10.63
2019-02-21T19:34:47.658Z,10.60
2019-02-21T19:37:18.193Z,10.56
2019-02-21T19:39:47.800Z,10.58
2019-02-21T19:42:18.163Z,10.58
2019-02-21T19:44:47.550Z,10.59
2019-02-21T19:47:18.028Z,10.60
2019-02-21T19:49:47.681Z,10.58
2019-02-21T19:52:17.994Z,10.58
2019-02-21T19:54:47.785Z,10.58
2019-02-21T19:57:17.965Z,10.58
2019-02-21T19:59:47.558Z,10.63
2019-02-21T20:02:17.948Z,10.63
2019-02-21T20:04:47.608Z,10.69
2019-02-21T20:07:17.003Z,10.70
2019-02-21T20:09:46.688Z,10.63
2019-02-21T20:12:16.081Z,10.63
2019-02-21T20:14:45.548Z,10.61
2019-02-21T20:17:14.962Z,10.61
2019-02-21T20:19:44.330Z,10.65
2019-02-21T20:22:13.878Z,10.62
2019-02-21T20:24:43.526Z,10.58
2019-02-21T20:27:12.883Z,10.67
2019-02-21T20:29:42.487Z,10.69
2019-02-21T20:32:11.982Z,10.71
2019-02-21T20:34:41.346Z,10.69
2019-02-21T20:37:12.234Z,10.68
2019-02-21T20:39:41.843Z,10.61
2019-02-21T20:42:11.219Z,10.61
2019-02-21T20:44:40.781Z,10.56
2019-02-21T20:47:10.238Z,10.56
2019-02-21T20:49:39.945Z,10.57
2019-02-21T20:52:09.307Z,10.57
2019-02-21T20:54:40.139Z,10.57
2019-02-21T20:57:10.358Z,10.58
2019-02-21T20:59:39.795Z,10.53
2019-02-21T21:02:09.219Z,10.53
2019-02-21T21:04:38.881Z,10.55
2019-02-21T21:07:08.298Z,10.51
2019-02-21T21:09:37.883Z,10.48
2019-02-21T21:12:07.258Z,10.48
2019-02-21T21:14:36.815Z,10.46
2019-02-21T21:17:06.225Z,10.45
2019-02-21T21:19:36.584Z,10.47
2019-02-21T21:22:06.109Z,10.46
2019-02-21T21:24:36.013Z,10.45
2019-02-21T21:27:05.627Z,10.47
2019-02-21T21:29:34.974Z,10.44
2019-02-21T21:32:04.403Z,10.43
2019-02-21T21:34:34.074Z,10.46
2019-02-21T21:37:03.458Z,10.51
2019-02-21T21:39:33.096Z,10.51
2019-02-21T21:42:02.723Z,10.53
2019-02-21T21:44:32.491Z,10.53
2019-02-21T21:47:02.013Z,10.51
2019-02-21T21:49:31.609Z,10.51
2019-02-21T21:52:01.015Z,10.54
2019-02-21T21:54:30.912Z,10.52
2019-02-21T21:57:00.294Z,10.50
2019-02-21T21:59:29.649Z,10.45
2019-02-21T22:01:59.015Z,10.37
2019-02-21T22:04:28.384Z,10.37
2019-02-21T22:06:57.978Z,10.37
2019-02-21T22:09:27.902Z,10.34
2019-02-21T22:11:57.281Z,10.32
2019-02-21T22:14:26.947Z,10.32
2019-02-21T22:16:56.332Z,10.28
2019-02-21T22:19:26.502Z,10.25
2019-02-21T22:21:56.262Z,10.20
2019-02-21T22:24:26.364Z,10.20
2019-02-21T22:26:56.062Z,10.24
2019-02-21T22:29:25.477Z,10.26
2019-02-21T22:31:55.119Z,10.19
2019-02-21T22:34:24.709Z,10.19
2019-02-21T22:36:54.265Z,10.12
2019-02-21T22:39:24.213Z,10.12
2019-02-21T22:41:53.574Z,10.13
2019-02-21T22:44:23.424Z,10.11
2019-02-21T22:46:53.355Z,10.09
2019-02-21T22:49:23.007Z,10.02
2019-02-21T22:51:52.639Z,10.02
2019-02-21T22:54:22.317Z,10.03
2019-02-21T22:56:51.697Z,10.03
2019-02-21T22:59:21.349Z,10.05
2019-02-21T23:01:50.800Z,10.05
2019-02-21T23:04:23.705Z,10.05
2019-02-21T23:06:56.588Z,10.02
2019-02-21T23:09:28.214Z,9.97
2019-02-21T23:11:57.980Z,9.96
2019-02-21T23:14:28.816Z,9.96
2019-02-21T23:16:58.253Z,9.88
2019-02-21T23:19:27.696Z,9.88
2019-02-21T23:21:57.268Z,9.94
2019-02-21T23:24:26.887Z,9.94
2019-02-21T23:26:56.260Z,9.94
2019-02-21T23:29:25.870Z,9.92
2019-02-21T23:31:55.499Z,9.89
2019-02-21T23:34:29.463Z,9.89
2019-02-21T23:36:59.124Z,9.96
2019-02-21T23:39:38.030Z,9.95
2019-02-21T23:41:59.594Z,9.94
2019-02-21T23:44:30.461Z,9.91
2019-02-21T23:47:00.117Z,9.92
2019-02-21T23:49:29.466Z,9.92
2019-02-21T23:51:59.152Z,9.90
2019-02-21T23:54:28.488Z,9.90
2019-02-21T23:56:57.866Z,9.92
2019-02-21T23:59:27.534Z,9.92
